Time;durP1;ratioP1;P1;durP2;ratioP2;P2;SDS_P1;SDS_P2;PMS_P1;PMS_P2;Temp;Humidity;BMP_temperature;BMP_pressure;BME280_temperature;BME280_humidity;BME280_pressure;Samples;Min_cycle;Max_cycle;Signal;HPM_P1;HPM_P2
2023/07/16 00:01:15;;;;;;;8.55;6.60;;;;;;;;;;4861513;29;20037;-80
2023/07/16 00:04:01;;;;;;;10.13;6.82;;;;;;;;;;4861481;29;20053;-80
2023/07/16 00:06:49;;;;;;;10.80;6.70;;;;;;;;;;4866796;29;20053;-83
2023/07/16 00:09:34;;;;;;;9.73;6.85;;;;;;;;;;4861310;29;20049;-81
2023/07/16 00:12:19;;;;;;;14.25;7.53;;;;;;;;;;4861352;29;20049;-81
2023/07/16 00:15:06;;;;;;;9.18;6.55;;;;;;;;;;4867633;29;20053;-81
2023/07/16 00:17:54;;;;;;;9.30;6.55;;;;;;;;;;4860544;29;20411;-82
2023/07/16 00:20:40;;;;;;;9.52;6.47;;;;;;;;;;4861664;29;20049;-83
2023/07/16 00:23:26;;;;;;;10.07;6.18;;;;;;;;;;4861635;29;20049;-80
2023/07/16 00:26:13;;;;;;;8.50;6.78;;;;;;;;;;4861312;29;20053;-82
2023/07/16 00:29:03;;;;;;;10.00;6.70;;;;;;;;;;4860680;29;20053;-82
2023/07/16 00:31:48;;;;;;;10.60;6.88;;;;;;;;;;4861420;29;20050;-82
2023/07/16 00:34:35;;;;;;;13.00;7.50;;;;;;;;;;4860887;29;20045;-80
2023/07/16 00:37:20;;;;;;;9.68;6.88;;;;;;;;;;4863224;29;20045;-80
2023/07/16 00:40:07;;;;;;;11.50;6.60;;;;;;;;;;4878826;29;20041;-80
2023/07/16 00:42:53;;;;;;;9.40;6.78;;;;;;;;;;4874867;29;20041;-82
2023/07/16 00:45:40;;;;;;;11.13;7.25;;;;;;;;;;4864745;29;20041;-80
2023/07/16 00:48:26;;;;;;;12.88;6.80;;;;;;;;;;4864439;29;20424;-80
2023/07/16 00:51:14;;;;;;;10.23;7.32;;;;;;;;;;4864849;29;20041;-80
2023/07/16 00:54:01;;;;;;;11.45;7.22;;;;;;;;;;4864640;29;20045;-81
2023/07/16 00:56:49;;;;;;;10.63;7.28;;;;;;;;;;4863634;29;20053;-81
2023/07/16 00:59:34;;;;;;;9.77;6.93;;;;;;;;;;4863189;29;20057;-80
2023/07/16 01:02:21;;;;;;;12.13;7.18;;;;;;;;;;4864553;29;20053;-80
2023/07/16 01:05:09;;;;;;;8.68;6.82;;;;;;;;;;4870316;29;20049;-81
2023/07/16 01:08:08;;;;;;;12.40;6.97;;;;;;;;;;4864483;29;20492;-81
2023/07/16 01:10:59;;;;;;;9.18;6.80;;;;;;;;;;4864649;29;20400;-82
2023/07/16 01:13:46;;;;;;;9.60;7.07;;;;;;;;;;4856474;29;20045;-82
2023/07/16 01:16:36;;;;;;;11.32;7.28;;;;;;;;;;4869171;29;20053;-82
2023/07/16 01:19:23;;;;;;;11.65;7.40;;;;;;;;;;4864018;29;20045;-80
2023/07/16 01:22:20;;;;;;;9.70;7.00;;;;;;;;;;4864014;29;20061;-81
2023/07/16 01:25:24;;;;;;;9.20;7.03;;;;;;;;;;4869309;29;20053;-80
2023/07/16 01:28:10;;;;;;;10.90;7.30;;;;;;;;;;4869528;29;20053;-80
2023/07/16 01:30:58;;;;;;;11.13;7.13;;;;;;;;;;4863877;29;20041;-80
2023/07/16 01:33:44;;;;;;;10.27;6.80;;;;;;;;;;4862667;29;20054;-80
2023/07/16 01:36:34;;;;;;;13.63;7.40;;;;;;;;;;4863740;29;20049;-80
2023/07/16 01:39:19;;;;;;;8.88;7.03;;;;;;;;;;4864297;29;20053;-81
2023/07/16 01:42:05;;;;;;;8.50;6.93;;;;;;;;;;4863799;29;20049;-81
2023/07/16 01:44:51;;;;;;;9.23;7.35;;;;;;;;;;4862666;29;20050;-80
2023/07/16 01:47:54;;;;;;;11.85;7.90;;;;;;;;;;4863717;29;20045;-80
2023/07/16 01:50:40;;;;;;;11.32;7.28;;;;;;;;;;4863588;29;20403;-81
2023/07/16 01:53:26;;;;;;;10.43;7.80;;;;;;;;;;4863415;29;20050;-79
2023/07/16 01:56:11;;;;;;;11.02;7.50;;;;;;;;;;4869010;29;20049;-81
2023/07/16 01:58:57;;;;;;;9.50;7.03;;;;;;;;;;4863307;29;20053;-80
2023/07/16 02:01:42;;;;;;;9.27;7.28;;;;;;;;;;4863612;29;20045;-79
2023/07/16 02:04:27;;;;;;;8.60;7.63;;;;;;;;;;4863270;29;20421;-81
2023/07/16 02:07:13;;;;;;;10.82;8.00;;;;;;;;;;4855615;29;20049;-80
2023/07/16 02:09:59;;;;;;;11.82;7.30;;;;;;;;;;4863522;29;20049;-81
2023/07/16 02:12:44;;;;;;;12.15;7.88;;;;;;;;;;4863272;29;20045;-79
2023/07/16 02:15:29;;;;;;;9.20;7.00;;;;;;;;;;4868749;29;20049;-80
2023/07/16 02:18:14;;;;;;;9.98;7.20;;;;;;;;;;4868410;29;20487;-81
2023/07/16 02:21:02;;;;;;;10.07;7.85;;;;;;;;;;4863371;29;20054;-79
2023/07/16 02:23:46;;;;;;;10.80;8.00;;;;;;;;;;4863206;29;20050;-79
2023/07/16 02:26:32;;;;;;;12.68;8.07;;;;;;;;;;4863111;29;20488;-76
2023/07/16 02:29:18;;;;;;;12.68;7.85;;;;;;;;;;4863327;29;20057;-77
2023/07/16 02:32:03;;;;;;;12.30;8.68;;;;;;;;;;4868275;29;20053;-78
2023/07/16 02:34:49;;;;;;;12.07;7.82;;;;;;;;;;4863174;29;20053;-79
2023/07/16 02:37:36;;;;;;;12.02;7.82;;;;;;;;;;4862842;29;20045;-79
2023/07/16 02:40:21;;;;;;;11.55;7.63;;;;;;;;;;4861844;29;20065;-77
2023/07/16 02:43:06;;;;;;;9.30;7.80;;;;;;;;;;4862406;29;20045;-77
2023/07/16 02:45:51;;;;;;;12.80;7.88;;;;;;;;;;4862699;29;20045;-77
2023/07/16 02:48:37;;;;;;;13.98;8.73;;;;;;;;;;4867842;29;20050;-76
2023/07/16 02:51:22;;;;;;;12.75;8.18;;;;;;;;;;4862552;29;20045;-77
2023/07/16 02:54:08;;;;;;;10.95;7.75;;;;;;;;;;4869513;29;20049;-78
2023/07/16 02:56:53;;;;;;;10.13;8.05;;;;;;;;;;4864287;29;20500;-78
2023/07/16 02:59:39;;;;;;;13.93;8.35;;;;;;;;;;4862061;29;20050;-78
2023/07/16 03:02:25;;;;;;;14.82;8.23;;;;;;;;;;4867556;29;20049;-78
2023/07/16 03:05:10;;;;;;;9.77;7.97;;;;;;;;;;4869039;29;20049;-77
2023/07/16 03:07:56;;;;;;;11.38;8.40;;;;;;;;;;4862387;29;20057;-78
2023/07/16 03:10:41;;;;;;;13.02;8.27;;;;;;;;;;4862380;29;20049;-77
2023/07/16 03:13:28;;;;;;;14.43;8.43;;;;;;;;;;4867059;29;20045;-79
2023/07/16 03:16:14;;;;;;;11.10;8.18;;;;;;;;;;4862247;29;20412;-79
2023/07/16 03:18:59;;;;;;;10.40;8.43;;;;;;;;;;4868270;29;20046;-79
2023/07/16 03:21:45;;;;;;;10.38;8.45;;;;;;;;;;4861997;29;20045;-79
2023/07/16 03:24:30;;;;;;;10.10;7.97;;;;;;;;;;4862113;29;20049;-78
2023/07/16 03:27:16;;;;;;;13.63;8.50;;;;;;;;;;4862521;29;20046;-79
2023/07/16 03:30:02;;;;;;;14.50;8.00;;;;;;;;;;4866888;29;20061;-79
2023/07/16 03:32:47;;;;;;;16.77;8.32;;;;;;;;;;4861753;29;20084;-79
2023/07/16 03:35:32;;;;;;;10.15;7.55;;;;;;;;;;4868281;29;20042;-78
2023/07/16 03:38:17;;;;;;;14.10;7.78;;;;;;;;;;4866882;29;20049;-78
2023/07/16 03:41:03;;;;;;;10.65;8.13;;;;;;;;;;4867232;29;20404;-78
2023/07/16 03:43:48;;;;;;;15.25;9.25;;;;;;;;;;4853943;29;20041;-78
2023/07/16 03:46:39;;;;;;;11.45;9.23;;;;;;;;;;4866867;29;20488;-78
2023/07/16 03:49:25;;;;;;;13.73;8.32;;;;;;;;;;4866889;29;20049;-78
2023/07/16 03:52:11;;;;;;;12.32;8.65;;;;;;;;;;4867083;29;20049;-78
2023/07/16 03:54:57;;;;;;;13.02;8.70;;;;;;;;;;4866640;29;20050;-78
2023/07/16 03:57:42;;;;;;;16.73;8.43;;;;;;;;;;4861646;29;20049;-78
2023/07/16 04:00:28;;;;;;;13.57;8.98;;;;;;;;;;4880373;29;20411;-79
2023/07/16 04:03:13;;;;;;;11.30;7.78;;;;;;;;;;4872361;29;20482;-80
2023/07/16 04:06:16;;;;;;;14.85;8.07;;;;;;;;;;4880023;29;20048;-78
2023/07/16 04:09:02;;;;;;;16.90;7.70;;;;;;;;;;4885810;29;20048;-78
2023/07/16 04:11:48;;;;;;;10.55;8.15;;;;;;;;;;4879548;29;20057;-78
2023/07/16 04:14:34;;;;;;;10.45;7.80;;;;;;;;;;4880001;29;20053;-78
2023/07/16 04:17:19;;;;;;;9.45;7.85;;;;;;;;;;4879890;29;20049;-79
2023/07/16 04:20:06;;;;;;;9.65;8.02;;;;;;;;;;4879871;29;20053;-77
2023/07/16 04:22:51;;;;;;;14.18;7.65;;;;;;;;;;4880399;29;20475;-78
2023/07/16 04:25:36;;;;;;;9.65;7.22;;;;;;;;;;4885954;29;20037;-78
2023/07/16 04:28:22;;;;;;;10.77;7.80;;;;;;;;;;4886021;29;20056;-77
2023/07/16 04:31:07;;;;;;;11.70;7.95;;;;;;;;;;4879938;29;20049;-78
2023/07/16 04:33:53;;;;;;;12.82;8.25;;;;;;;;;;4879948;29;20387;-77
2023/07/16 04:36:39;;;;;;;11.40;7.80;;;;;;;;;;4879810;29;20053;-78
2023/07/16 04:39:24;;;;;;;10.65;8.10;;;;;;;;;;4879565;29;20407;-77
2023/07/16 04:42:10;;;;;;;13.25;8.05;;;;;;;;;;4879884;29;20427;-78
2023/07/16 04:44:55;;;;;;;16.02;7.88;;;;;;;;;;4879616;29;20037;-78
2023/07/16 04:47:41;;;;;;;11.02;7.82;;;;;;;;;;4880114;29;20044;-78
2023/07/16 04:50:26;;;;;;;11.20;8.55;;;;;;;;;;4879658;29;20045;-77
2023/07/16 04:53:12;;;;;;;12.48;8.18;;;;;;;;;;4879382;29;20053;-78
2023/07/16 04:55:58;;;;;;;12.30;8.18;;;;;;;;;;4879678;29;20053;-77
2023/07/16 04:58:43;;;;;;;10.65;7.70;;;;;;;;;;4879297;29;20057;-77
2023/07/16 05:01:29;;;;;;;11.45;7.60;;;;;;;;;;4885727;29;20491;-75
2023/07/16 05:04:14;;;;;;;14.82;8.27;;;;;;;;;;4879744;29;20036;-76
2023/07/16 05:07:04;;;;;;;10.65;7.63;;;;;;;;;;4879707;29;20056;-76
2023/07/16 05:09:48;;;;;;;10.93;8.20;;;;;;;;;;4886321;29;20395;-76
2023/07/16 05:12:34;;;;;;;9.52;7.80;;;;;;;;;;4879354;29;20053;-77
2023/07/16 05:15:20;;;;;;;10.98;8.50;;;;;;;;;;4879103;29;20049;-77
2023/07/16 05:18:05;;;;;;;16.42;8.55;;;;;;;;;;4885701;29;20045;-79
2023/07/16 05:20:51;;;;;;;13.77;8.43;;;;;;;;;;4879274;29;20391;-79
2023/07/16 05:23:36;;;;;;;13.68;8.23;;;;;;;;;;4880079;29;20475;-77
2023/07/16 05:26:22;;;;;;;13.02;8.93;;;;;;;;;;4882525;29;20045;-77
2023/07/16 05:29:07;;;;;;;18.30;8.85;;;;;;;;;;4882646;29;20049;-76
2023/07/16 05:31:52;;;;;;;11.75;8.60;;;;;;;;;;4882581;29;20045;-76
2023/07/16 05:34:38;;;;;;;15.35;7.78;;;;;;;;;;4882230;29;20411;-77
2023/07/16 05:37:23;;;;;;;13.05;7.88;;;;;;;;;;4882459;29;20048;-77
2023/07/16 05:40:09;;;;;;;11.98;7.93;;;;;;;;;;4882642;29;20045;-79
2023/07/16 05:42:55;;;;;;;10.43;7.50;;;;;;;;;;4882287;29;20052;-78
2023/07/16 05:45:41;;;;;;;12.18;7.63;;;;;;;;;;4882339;29;20037;-77
2023/07/16 05:48:26;;;;;;;15.45;7.95;;;;;;;;;;4882248;29;20517;-77
2023/07/16 05:51:11;;;;;;;10.07;7.75;;;;;;;;;;4882306;29;20044;-78
2023/07/16 05:53:57;;;;;;;13.38;8.93;;;;;;;;;;4888434;29;20057;-79
2023/07/16 05:56:43;;;;;;;14.63;8.95;;;;;;;;;;4882492;29;20391;-80
2023/07/16 05:59:29;;;;;;;16.65;8.77;;;;;;;;;;4893602;29;20053;-79
2023/07/16 06:02:14;;;;;;;14.80;8.50;;;;;;;;;;4907495;29;20049;-78
2023/07/16 06:04:59;;;;;;;12.88;8.60;;;;;;;;;;4907692;29;20044;-79
2023/07/16 06:07:45;;;;;;;13.50;8.05;;;;;;;;;;4901005;29;20049;-76
2023/07/16 06:10:34;;;;;;;9.75;7.03;;;;;;;;;;4900573;29;20478;-78
2023/07/16 06:13:19;;;;;;;11.60;7.93;;;;;;;;;;4906887;29;20406;-78
2023/07/16 06:16:05;;;;;;;12.00;7.93;;;;;;;;;;4900650;29;20514;-79
2023/07/16 06:18:50;;;;;;;13.73;8.52;;;;;;;;;;4900468;29;20044;-79
2023/07/16 06:21:36;;;;;;;9.88;8.45;;;;;;;;;;4899823;29;20056;-78
2023/07/16 06:24:22;;;;;;;19.70;8.90;;;;;;;;;;4899935;29;20048;-78
2023/07/16 06:27:07;;;;;;;11.13;8.25;;;;;;;;;;4900253;29;20053;-78
2023/07/16 06:29:52;;;;;;;12.02;8.60;;;;;;;;;;4906436;29;20048;-77
2023/07/16 06:32:38;;;;;;;10.35;7.28;;;;;;;;;;4900414;29;20052;-78
2023/07/16 06:35:24;;;;;;;10.05;7.50;;;;;;;;;;4905930;29;20049;-78
2023/07/16 06:38:09;;;;;;;13.23;8.20;;;;;;;;;;4900136;29;20053;-78
2023/07/16 06:40:55;;;;;;;8.57;7.03;;;;;;;;;;4906215;29;20515;-79
2023/07/16 06:43:40;;;;;;;11.82;7.07;;;;;;;;;;4899805;29;20044;-77
2023/07/16 06:46:26;;;;;;;11.95;7.18;;;;;;;;;;4906117;29;20044;-77
2023/07/16 06:49:12;;;;;;;12.27;7.20;;;;;;;;;;4899874;29;20053;-79
2023/07/16 06:51:57;;;;;;;11.63;7.50;;;;;;;;;;4905849;29;20044;-77
2023/07/16 06:54:43;;;;;;;12.85;6.75;;;;;;;;;;4885467;29;20052;-77
2023/07/16 06:57:29;;;;;;;10.15;7.22;;;;;;;;;;4900109;29;20049;-77
2023/07/16 07:00:14;;;;;;;11.40;7.15;;;;;;;;;;4899704;29;20048;-78
2023/07/16 07:03:00;;;;;;;10.13;6.95;;;;;;;;;;4905288;29;20399;-80
2023/07/16 07:05:45;;;;;;;11.75;7.05;;;;;;;;;;4891316;29;20403;-77
2023/07/16 07:08:31;;;;;;;12.57;7.53;;;;;;;;;;4899309;29;20041;-80
2023/07/16 07:11:16;;;;;;;8.80;6.78;;;;;;;;;;4899440;29;20056;-78
2023/07/16 07:14:01;;;;;;;14.20;7.90;;;;;;;;;;4899166;29;20479;-78
2023/07/16 07:16:47;;;;;;;12.13;6.72;;;;;;;;;;4905731;29;20074;-77
2023/07/16 07:19:32;;;;;;;10.73;7.22;;;;;;;;;;4899430;29;20045;-77
2023/07/16 07:22:17;;;;;;;9.43;6.55;;;;;;;;;;4906012;29;20467;-78
2023/07/16 07:25:03;;;;;;;11.68;6.55;;;;;;;;;;4905524;29;20044;-77
2023/07/16 07:27:48;;;;;;;19.23;7.05;;;;;;;;;;4905398;29;20052;-80
2023/07/16 07:30:35;;;;;;;9.43;6.88;;;;;;;;;;4899921;29;20040;-78
2023/07/16 07:33:20;;;;;;;10.90;6.68;;;;;;;;;;4905601;29;20052;-80
2023/07/16 07:36:06;;;;;;;13.52;6.75;;;;;;;;;;4905490;29;20053;-80
2023/07/16 07:38:51;;;;;;;11.75;7.25;;;;;;;;;;4898910;29;20072;-75
2023/07/16 07:41:37;;;;;;;9.50;6.53;;;;;;;;;;4891142;29;20037;-75
2023/07/16 07:44:23;;;;;;;12.85;7.25;;;;;;;;;;4905205;29;20049;-76
2023/07/16 07:47:08;;;;;;;11.00;7.00;;;;;;;;;;4898330;29;20048;-77
2023/07/16 07:49:54;;;;;;;12.57;6.78;;;;;;;;;;4905301;29;20048;-75
2023/07/16 07:52:40;;;;;;;8.77;6.30;;;;;;;;;;4904310;29;20483;-74
2023/07/16 07:55:25;;;;;;;9.77;6.82;;;;;;;;;;4898215;29;20045;-76
2023/07/16 07:58:11;;;;;;;11.60;7.00;;;;;;;;;;4904503;29;20044;-79
2023/07/16 08:00:56;;;;;;;15.15;7.20;;;;;;;;;;4898817;29;20049;-77
2023/07/16 08:03:41;;;;;;;9.60;7.10;;;;;;;;;;4898587;29;20052;-76
2023/07/16 08:06:27;;;;;;;14.65;7.13;;;;;;;;;;4904844;29;20056;-75
2023/07/16 08:09:12;;;;;;;13.60;6.47;;;;;;;;;;4898383;29;20052;-76
2023/07/16 08:11:58;;;;;;;10.23;6.43;;;;;;;;;;4904681;29;20053;-76
2023/07/16 08:14:44;;;;;;;9.85;6.57;;;;;;;;;;4898365;29;20049;-76
2023/07/16 08:17:32;;;;;;;10.38;6.85;;;;;;;;;;4898668;29;20398;-76
2023/07/16 08:20:18;;;;;;;12.05;7.10;;;;;;;;;;4904838;29;20490;-77
2023/07/16 08:23:05;;;;;;;11.93;6.82;;;;;;;;;;4904526;29;20048;-78
2023/07/16 08:25:51;;;;;;;9.80;6.07;;;;;;;;;;4904357;29;20036;-76
2023/07/16 08:28:35;;;;;;;9.55;6.60;;;;;;;;;;4898170;29;20052;-76
2023/07/16 08:31:21;;;;;;;10.27;6.47;;;;;;;;;;4898493;29;20390;-76
2023/07/16 08:34:06;;;;;;;10.60;7.00;;;;;;;;;;4884538;29;20406;-76
2023/07/16 08:36:51;;;;;;;9.55;6.43;;;;;;;;;;4898804;29;20044;-75
2023/07/16 08:39:36;;;;;;;9.85;6.25;;;;;;;;;;4904254;29;20052;-76
2023/07/16 08:42:22;;;;;;;9.85;6.95;;;;;;;;;;4898071;29;20044;-75
2023/07/16 08:45:10;;;;;;;9.63;6.60;;;;;;;;;;4904564;29;20487;-77
2023/07/16 08:47:55;;;;;;;9.32;6.10;;;;;;;;;;4904248;29;20044;-76
2023/07/16 08:50:41;;;;;;;7.85;6.22;;;;;;;;;;4904352;29;20052;-76
2023/07/16 08:53:27;;;;;;;13.38;6.78;;;;;;;;;;4904785;29;20052;-77
2023/07/16 08:56:13;;;;;;;11.85;6.80;;;;;;;;;;4904227;29;20044;-77
2023/07/16 08:58:59;;;;;;;7.95;6.32;;;;;;;;;;4904593;29;20052;-76
2023/07/16 09:01:47;;;;;;;9.15;6.68;;;;;;;;;;4907871;29;20040;-76
2023/07/16 09:04:33;;;;;;;11.13;6.47;;;;;;;;;;4907754;29;20044;-76
2023/07/16 09:07:18;;;;;;;9.57;6.38;;;;;;;;;;4907974;29;20056;-75
2023/07/16 09:10:04;;;;;;;10.75;6.63;;;;;;;;;;4901504;29;20052;-77
2023/07/16 09:12:49;;;;;;;11.32;6.28;;;;;;;;;;4901487;29;20049;-76
2023/07/16 09:15:35;;;;;;;15.50;7.20;;;;;;;;;;4907709;29;20040;-76
2023/07/16 09:18:27;;;;;;;11.27;6.90;;;;;;;;;;4901321;29;20487;-75
2023/07/16 09:21:13;;;;;;;9.93;6.15;;;;;;;;;;4907720;29;20040;-75
2023/07/16 09:23:58;;;;;;;17.17;6.65;;;;;;;;;;4901434;29;20057;-76
2023/07/16 09:26:52;;;;;;;12.75;7.28;;;;;;;;;;4901360;29;20044;-75
2023/07/16 09:29:38;;;;;;;12.00;6.30;;;;;;;;;;4902524;29;20060;-76
2023/07/16 09:32:41;;;;;;;8.63;6.55;;;;;;;;;;4909842;29;20044;-76
2023/07/16 09:35:26;;;;;;;11.82;6.50;;;;;;;;;;4893785;29;20048;-76
2023/07/16 09:38:12;;;;;;;7.85;6.93;;;;;;;;;;4909847;29;20048;-76
2023/07/16 09:40:58;;;;;;;14.15;6.72;;;;;;;;;;4906802;29;20048;-78
2023/07/16 09:43:44;;;;;;;10.27;6.93;;;;;;;;;;4907486;29;20044;-77
2023/07/16 09:46:29;;;;;;;12.48;7.07;;;;;;;;;;4901145;29;20052;-77
2023/07/16 09:49:15;;;;;;;15.23;6.70;;;;;;;;;;4900897;29;20052;-75
2023/07/16 09:52:02;;;;;;;10.20;6.93;;;;;;;;;;4900849;29;20040;-75
2023/07/16 09:54:50;;;;;;;12.13;6.82;;;;;;;;;;4900647;29;20398;-75
2023/07/16 09:57:39;;;;;;;13.77;6.97;;;;;;;;;;4901091;29;20406;-77
2023/07/16 10:00:25;;;;;;;13.05;6.82;;;;;;;;;;4900447;29;20413;-75
2023/07/16 10:03:09;;;;;;;13.40;6.97;;;;;;;;;;4900997;29;20479;-75
2023/07/16 10:06:06;;;;;;;12.95;7.22;;;;;;;;;;4906437;29;20048;-75
2023/07/16 10:08:51;;;;;;;10.10;6.88;;;;;;;;;;4900327;29;20048;-75
2023/07/16 10:11:37;;;;;;;12.38;6.82;;;;;;;;;;4900571;29;20048;-76
2023/07/16 10:14:25;;;;;;;10.60;6.80;;;;;;;;;;4906646;29;20045;-76
2023/07/16 10:17:19;;;;;;;12.70;6.60;;;;;;;;;;4906816;29;20045;-77
2023/07/16 10:20:11;;;;;;;13.52;6.88;;;;;;;;;;4900469;29;20041;-73
2023/07/16 10:22:57;;;;;;;9.05;6.05;;;;;;;;;;4900349;29;20402;-74
2023/07/16 10:25:59;;;;;;;24.63;7.03;;;;;;;;;;4900259;29;20049;-73
2023/07/16 10:28:45;;;;;;;14.23;6.80;;;;;;;;;;4906320;29;20048;-75
2023/07/16 10:31:33;;;;;;;15.50;6.57;;;;;;;;;;4900498;29;20052;-75
2023/07/16 10:34:23;;;;;;;11.90;6.70;;;;;;;;;;4906319;29;20057;-76
2023/07/16 10:37:08;;;;;;;14.07;6.90;;;;;;;;;;4892895;29;20052;-75
2023/07/16 10:39:59;;;;;;;15.32;7.13;;;;;;;;;;4899987;29;20044;-74
2023/07/16 10:42:46;;;;;;;11.55;6.63;;;;;;;;;;4906125;29;20048;-75
2023/07/16 10:45:31;;;;;;;11.88;6.95;;;;;;;;;;4900099;29;20040;-76
2023/07/16 10:48:17;;;;;;;8.82;6.95;;;;;;;;;;4906486;29;20391;-76
2023/07/16 10:51:02;;;;;;;24.77;7.47;;;;;;;;;;4899814;29;20044;-75
2023/07/16 10:53:48;;;;;;;18.17;7.55;;;;;;;;;;4900349;29;20435;-73
2023/07/16 10:56:36;;;;;;;9.73;7.07;;;;;;;;;;4905650;29;20044;-73
2023/07/16 10:59:22;;;;;;;13.18;7.60;;;;;;;;;;4872747;29;20049;-75
2023/07/16 11:02:14;;;;;;;17.55;7.68;;;;;;;;;;4862409;29;20057;-75
2023/07/16 11:05:02;;;;;;;13.65;7.55;;;;;;;;;;4862312;29;20046;-75
2023/07/16 11:07:49;;;;;;;18.48;7.25;;;;;;;;;;4862539;29;20049;-74
2023/07/16 11:10:34;;;;;;;10.82;7.10;;;;;;;;;;4861244;29;20045;-74
2023/07/16 11:13:19;;;;;;;17.25;7.15;;;;;;;;;;4862055;29;20050;-73
2023/07/16 11:16:10;;;;;;;20.02;7.65;;;;;;;;;;4861863;29;20045;-74
2023/07/16 11:18:55;;;;;;;12.23;7.47;;;;;;;;;;4861957;29;20053;-75
2023/07/16 11:21:41;;;;;;;12.95;7.30;;;;;;;;;;4867264;29;20057;-74
2023/07/16 11:24:27;;;;;;;11.20;7.05;;;;;;;;;;4867946;29;20041;-76
2023/07/16 11:27:15;;;;;;;12.77;7.85;;;;;;;;;;4862277;29;20045;-75
2023/07/16 11:30:01;;;;;;;14.32;7.43;;;;;;;;;;4861945;29;20053;-73
2023/07/16 11:32:48;;;;;;;14.02;7.15;;;;;;;;;;4868075;29;20411;-73
2023/07/16 11:35:36;;;;;;;16.85;7.57;;;;;;;;;;4867938;29;20041;-75
2023/07/16 11:38:22;;;;;;;13.82;7.60;;;;;;;;;;4862090;29;20515;-74
2023/07/16 11:41:07;;;;;;;16.38;7.32;;;;;;;;;;4861759;29;20041;-75
2023/07/16 11:43:53;;;;;;;18.77;7.65;;;;;;;;;;4861667;29;20053;-76
2023/07/16 11:46:38;;;;;;;17.35;7.03;;;;;;;;;;4867859;29;20399;-75
2023/07/16 11:49:23;;;;;;;14.82;7.50;;;;;;;;;;4867791;29;20053;-75
2023/07/16 11:52:09;;;;;;;13.65;7.28;;;;;;;;;;4861813;29;20045;-75
2023/07/16 11:54:59;;;;;;;15.43;7.10;;;;;;;;;;4861665;29;20049;-74
2023/07/16 11:57:44;;;;;;;19.60;8.23;;;;;;;;;;4861656;29;20071;-75
2023/07/16 12:00:30;;;;;;;17.00;7.70;;;;;;;;;;4861168;29;20046;-75
2023/07/16 12:03:16;;;;;;;15.18;8.00;;;;;;;;;;4861762;29;20045;-76
2023/07/16 12:06:01;;;;;;;11.48;7.03;;;;;;;;;;4861335;29;20037;-75
2023/07/16 12:08:47;;;;;;;12.60;7.47;;;;;;;;;;4861489;29;20042;-74
2023/07/16 12:11:32;;;;;;;13.07;7.35;;;;;;;;;;4861494;29;20053;-74
2023/07/16 12:14:18;;;;;;;14.98;7.60;;;;;;;;;;4861126;29;20049;-75
2023/07/16 12:17:04;;;;;;;9.65;6.80;;;;;;;;;;4861897;29;20049;-75
2023/07/16 12:19:49;;;;;;;13.60;7.22;;;;;;;;;;4861222;29;20045;-76
2023/07/16 12:22:36;;;;;;;12.40;6.78;;;;;;;;;;4867512;29;20049;-75
2023/07/16 12:25:21;;;;;;;10.85;7.00;;;;;;;;;;4861085;29;20369;-76
2023/07/16 12:28:07;;;;;;;11.25;7.05;;;;;;;;;;4861510;29;20057;-76
2023/07/16 12:30:52;;;;;;;11.88;7.03;;;;;;;;;;4861217;29;20053;-76
2023/07/16 12:33:38;;;;;;;12.00;7.40;;;;;;;;;;4869721;29;20053;-76
2023/07/16 12:36:24;;;;;;;10.05;6.70;;;;;;;;;;4871093;29;20496;-76
2023/07/16 12:39:09;;;;;;;13.25;7.15;;;;;;;;;;4864908;29;20049;-76
2023/07/16 12:41:55;;;;;;;12.57;7.53;;;;;;;;;;4864862;29;20052;-76
2023/07/16 12:44:40;;;;;;;11.98;6.90;;;;;;;;;;4865059;29;20049;-77
2023/07/16 12:47:26;;;;;;;12.13;6.60;;;;;;;;;;4864758;29;20053;-76
2023/07/16 12:50:12;;;;;;;13.13;7.35;;;;;;;;;;4870862;29;20045;-76
2023/07/16 12:52:57;;;;;;;12.98;6.82;;;;;;;;;;4864006;29;20050;-77
2023/07/16 12:55:42;;;;;;;9.70;7.07;;;;;;;;;;4864481;29;20050;-76
2023/07/16 12:58:28;;;;;;;12.18;6.20;;;;;;;;;;4869664;29;20050;-77
2023/07/16 13:01:14;;;;;;;14.32;7.28;;;;;;;;;;4870780;29;20041;-77
2023/07/16 13:03:59;;;;;;;11.38;6.40;;;;;;;;;;4870663;29;20061;-76
2023/07/16 13:06:48;;;;;;;11.68;7.30;;;;;;;;;;4869624;29;20046;-77
2023/07/16 13:09:35;;;;;;;14.77;6.55;;;;;;;;;;4869473;29;20057;-77
2023/07/16 13:12:20;;;;;;;12.77;7.07;;;;;;;;;;4870067;29;20045;-76
2023/07/16 13:15:06;;;;;;;14.32;6.57;;;;;;;;;;4870682;29;20403;-76
2023/07/16 13:17:51;;;;;;;12.18;7.13;;;;;;;;;;4870395;29;20488;-76
2023/07/16 13:20:36;;;;;;;11.88;6.93;;;;;;;;;;4870405;29;20049;-78
2023/07/16 13:23:21;;;;;;;14.00;6.50;;;;;;;;;;4864299;29;20050;-77
2023/07/16 13:26:07;;;;;;;10.75;6.32;;;;;;;;;;4863531;29;20480;-76
2023/07/16 13:28:53;;;;;;;10.65;6.47;;;;;;;;;;4864631;29;20479;-76
2023/07/16 13:31:43;;;;;;;14.50;7.05;;;;;;;;;;4864338;29;20053;-77
2023/07/16 13:34:29;;;;;;;11.18;6.63;;;;;;;;;;4864118;29;20049;-75
2023/07/16 13:37:14;;;;;;;9.50;6.93;;;;;;;;;;4864054;29;20045;-74
2023/07/16 13:40:01;;;;;;;13.88;6.85;;;;;;;;;;4863922;29;20041;-76
2023/07/16 13:42:47;;;;;;;14.00;6.63;;;;;;;;;;4869087;29;20045;-75
2023/07/16 13:45:34;;;;;;;14.85;6.32;;;;;;;;;;4862746;29;20041;-80
2023/07/16 13:48:19;;;;;;;12.73;6.65;;;;;;;;;;4869206;29;20057;-77
2023/07/16 13:51:05;;;;;;;11.25;6.43;;;;;;;;;;4863656;29;20046;-76
2023/07/16 13:53:50;;;;;;;11.65;6.50;;;;;;;;;;4863627;29;20049;-76
2023/07/16 13:56:36;;;;;;;13.30;6.13;;;;;;;;;;4855473;29;20046;-76
2023/07/16 13:59:22;;;;;;;10.45;6.30;;;;;;;;;;4866203;29;20053;-76
2023/07/16 14:02:08;;;;;;;10.95;6.80;;;;;;;;;;4863582;29;20045;-77
2023/07/16 14:04:53;;;;;;;10.27;6.47;;;;;;;;;;4863414;29;20053;-77
2023/07/16 14:07:39;;;;;;;11.35;6.13;;;;;;;;;;4869602;29;20049;-77
2023/07/16 14:10:25;;;;;;;13.93;6.47;;;;;;;;;;4863435;29;20050;-78
2023/07/16 14:13:11;;;;;;;9.80;6.30;;;;;;;;;;4869456;29;20053;-77
2023/07/16 14:15:55;;;;;;;10.02;6.05;;;;;;;;;;4869363;29;20049;-77
2023/07/16 14:18:40;;;;;;;11.75;6.38;;;;;;;;;;4868324;29;20042;-75
2023/07/16 14:21:25;;;;;;;9.88;6.70;;;;;;;;;;4855173;29;20046;-75
2023/07/16 14:24:10;;;;;;;9.25;6.35;;;;;;;;;;4869312;29;20046;-75
2023/07/16 14:27:00;;;;;;;12.90;6.00;;;;;;;;;;4863005;29;20484;-75
2023/07/16 14:29:46;;;;;;;12.30;6.47;;;;;;;;;;4863037;29;20045;-75
2023/07/16 14:32:31;;;;;;;9.65;6.95;;;;;;;;;;4862958;29;20049;-74
2023/07/16 14:35:17;;;;;;;9.40;6.70;;;;;;;;;;4869358;29;20488;-74
2023/07/16 14:38:02;;;;;;;12.93;6.80;;;;;;;;;;4862932;29;20045;-73
2023/07/16 14:40:49;;;;;;;10.82;6.35;;;;;;;;;;4862788;29;20041;-74
2023/07/16 14:43:34;;;;;;;12.68;6.30;;;;;;;;;;4862911;29;20045;-75
2023/07/16 14:46:20;;;;;;;12.55;6.78;;;;;;;;;;4868969;29;20053;-75
2023/07/16 14:49:06;;;;;;;10.18;6.47;;;;;;;;;;4868940;29;20432;-75
2023/07/16 14:51:51;;;;;;;10.65;6.53;;;;;;;;;;4862721;29;20041;-75
2023/07/16 14:54:37;;;;;;;9.88;6.72;;;;;;;;;;4861493;29;20049;-74
2023/07/16 14:57:22;;;;;;;10.13;6.10;;;;;;;;;;4862144;29;20404;-75
2023/07/16 15:00:11;;;;;;;10.18;6.38;;;;;;;;;;4863119;29;20053;-74
2023/07/16 15:02:57;;;;;;;12.25;6.53;;;;;;;;;;4859787;29;20412;-73
2023/07/16 15:05:42;;;;;;;10.90;6.15;;;;;;;;;;4862109;29;20407;-73
2023/07/16 15:08:29;;;;;;;13.95;6.55;;;;;;;;;;4862245;29;20041;-74
2023/07/16 15:11:14;;;;;;;8.80;6.57;;;;;;;;;;4868422;29;20046;-74
2023/07/16 15:14:11;;;;;;;11.00;6.90;;;;;;;;;;4869250;29;20045;-75
2023/07/16 15:16:56;;;;;;;10.65;6.75;;;;;;;;;;4860918;29;20054;-78
2023/07/16 15:19:48;;;;;;;16.80;6.47;;;;;;;;;;4862738;29;20479;-77
2023/07/16 15:22:34;;;;;;;11.38;6.82;;;;;;;;;;4868428;29;20049;-76
2023/07/16 15:25:36;;;;;;;10.73;6.63;;;;;;;;;;4868760;29;20045;-77
2023/07/16 15:28:33;;;;;;;10.70;6.25;;;;;;;;;;4861968;29;20061;-75
2023/07/16 15:31:50;;;;;;;;;;;;;;;;;;;;;
2023/07/16 15:39:50;;;;;;;11.68;6.00;;;;;;;;;;4838240;29;20050;-77
2023/07/16 15:42:39;;;;;;;11.50;6.63;;;;;;;;;;4861131;29;20516;-79
2023/07/16 15:45:44;;;;;;;9.68;6.28;;;;;;;;;;4868090;29;20049;-76
2023/07/16 15:48:32;;;;;;;11.57;6.72;;;;;;;;;;4867922;29;20045;-77
2023/07/16 15:52:35;;;;;;;15.05;6.57;;;;;;;;;;4860064;29;20049;-77
2023/07/16 15:55:56;;;;;;;8.95;6.28;;;;;;;;;;4867699;29;20049;-77
2023/07/16 16:03:13;;;;;;;14.95;6.85;;;;;;;;;;4829091;29;20054;-75
2023/07/16 16:05:58;;;;;;;9.48;6.47;;;;;;;;;;4898043;29;20045;-73
2023/07/16 16:08:44;;;;;;;14.40;6.70;;;;;;;;;;4898204;29;20049;-74
2023/07/16 16:11:29;;;;;;;10.05;6.85;;;;;;;;;;4884657;29;20052;-74
2023/07/16 16:14:14;;;;;;;9.55;6.90;;;;;;;;;;4904638;29;20040;-74
2023/07/16 16:16:59;;;;;;;12.18;6.63;;;;;;;;;;4898328;29;20044;-75
2023/07/16 16:19:45;;;;;;;10.30;6.38;;;;;;;;;;4898482;29;20052;-74
2023/07/16 16:22:30;;;;;;;10.60;6.50;;;;;;;;;;4904976;29;20056;-73
2023/07/16 16:25:16;;;;;;;12.77;6.88;;;;;;;;;;4898215;29;20391;-75
2023/07/16 16:28:12;;;;;;;11.73;6.55;;;;;;;;;;4890823;29;20044;-75
2023/07/16 16:31:06;;;;;;;12.93;6.20;;;;;;;;;;4905008;29;20403;-77
2023/07/16 16:33:52;;;;;;;8.15;5.97;;;;;;;;;;4898405;29;20045;-75
2023/07/16 16:36:37;;;;;;;10.27;6.50;;;;;;;;;;4898266;29;20048;-75
2023/07/16 16:39:23;;;;;;;9.27;6.68;;;;;;;;;;4904924;29;20056;-74